Time;durP1;ratioP1;P1;durP2;ratioP2;P2;SDS_P1;SDS_P2;PMS_P1;PMS_P2;Temp;Humidity;BMP_temperature;BMP_pressure;BME280_temperature;BME280_humidity;BME280_pressure;Samples;Min_cycle;Max_cycle;Signal;HPM_P1;HPM_P2
2022/11/13 00:01:22;;;;;;;10.90;6.90;;;;;;;7.34;50.72;103031.03;7389549;19;20017;-65
2022/11/13 00:03:48;;;;;;;12.52;7.13;;;;;;;7.30;50.67;103032.66;7389440;19;20427;-65
2022/11/13 00:06:15;;;;;;;10.52;6.72;;;;;;;7.48;50.40;103028.66;7389674;19;20016;-66
2022/11/13 00:08:41;;;;;;;12.63;6.82;;;;;;;7.44;50.46;103031.06;7389358;19;20093;-66
2022/11/13 00:11:13;;;;;;;11.18;6.18;;;;;;;7.45;50.43;103029.19;7390599;19;20011;-66
2022/11/13 00:13:39;;;;;;;11.27;6.15;;;;;;;7.44;50.41;103033.78;7389990;19;20006;-66
2022/11/13 00:16:10;;;;;;;9.88;5.95;;;;;;;7.41;50.50;103043.31;7389322;19;20022;-66
2022/11/13 00:18:36;;;;;;;12.15;6.40;;;;;;;7.37;50.68;103041.38;7388692;19;20003;-65
2022/11/13 00:21:11;;;;;;;11.60;6.35;;;;;;;7.34;50.92;103037.28;7390380;19;20002;-65
2022/11/13 00:23:36;;;;;;;9.48;5.90;;;;;;;7.31;50.94;103045.97;7390802;19;20015;-66
2022/11/13 00:26:08;;;;;;;10.68;6.60;;;;;;;7.31;51.06;103043.25;7389765;19;20450;-66
2022/11/13 00:28:34;;;;;;;10.35;6.03;;;;;;;7.28;51.01;103043.78;7388988;19;20014;-66
2022/11/13 00:31:01;;;;;;;9.98;5.80;;;;;;;7.32;50.80;103039.44;7389649;19;20002;-66
2022/11/13 00:33:27;;;;;;;10.63;6.10;;;;;;;7.27;50.77;103039.41;7389398;19;19998;-66
2022/11/13 00:35:53;;;;;;;10.73;5.65;;;;;;;7.32;50.77;103034.00;7390981;19;19991;-66
2022/11/13 00:38:19;;;;;;;10.25;5.95;;;;;;;7.46;50.23;103038.97;7395475;19;20553;-66
2022/11/13 00:40:44;;;;;;;10.80;5.78;;;;;;;7.34;50.68;103026.41;7397481;19;20462;-64
2022/11/13 00:43:10;;;;;;;11.38;6.10;;;;;;;7.36;50.30;103032.41;7396131;19;20028;-64
2022/11/13 00:45:35;;;;;;;10.70;5.53;;;;;;;7.27;50.39;103031.28;7396858;19;20018;-64
2022/11/13 00:48:01;;;;;;;11.10;6.07;;;;;;;7.19;50.65;103031.78;7395297;19;20002;-64
2022/11/13 00:50:27;;;;;;;12.40;6.40;;;;;;;7.13;50.71;103035.53;7394181;19;20476;-64
2022/11/13 00:52:52;;;;;;;13.35;6.50;;;;;;;7.02;50.85;103029.22;7395912;19;20002;-65
2022/11/13 00:55:18;;;;;;;12.50;7.20;;;;;;;7.06;50.94;103027.63;7394832;19;20002;-65
2022/11/13 00:57:44;;;;;;;11.57;6.85;;;;;;;7.18;50.60;103033.69;7393605;19;20659;-66
2022/11/13 01:00:10;;;;;;;12.55;7.03;;;;;;;7.15;50.26;103030.69;7393563;19;20025;-66
2022/11/13 01:02:36;;;;;;;12.45;7.32;;;;;;;7.21;50.10;103026.88;7393972;19;20009;-66
2022/11/13 01:05:02;;;;;;;11.82;6.55;;;;;;;7.15;50.00;103023.34;7396592;19;20386;-66
2022/11/13 01:07:28;;;;;;;11.77;6.93;;;;;;;7.02;50.30;103021.09;7395504;19;20006;-66
2022/11/13 01:09:54;;;;;;;11.55;6.65;;;;;;;6.91;50.33;103028.38;7393741;19;20485;-66
2022/11/13 01:12:19;;;;;;;11.38;6.63;;;;;;;6.84;50.49;103030.44;7395691;19;20357;-66
2022/11/13 01:14:45;;;;;;;13.40;7.00;;;;;;;6.87;50.50;103028.03;7393868;19;20017;-67
2022/11/13 01:17:11;;;;;;;10.68;6.50;;;;;;;7.13;50.02;103036.38;7394395;19;20078;-65
2022/11/13 01:19:36;;;;;;;12.38;7.10;;;;;;;7.02;49.98;103013.75;7393787;19;20018;-66
2022/11/13 01:22:02;;;;;;;11.23;6.35;;;;;;;6.82;50.43;103014.41;7395455;19;20050;-66
2022/11/13 01:24:28;;;;;;;11.75;6.75;;;;;;;6.99;50.12;103013.47;7395207;19;20062;-64
2022/11/13 01:26:53;;;;;;;13.93;6.78;;;;;;;7.10;50.14;103014.34;7395039;19;20337;-64
2022/11/13 01:29:26;;;;;;;11.38;6.30;;;;;;;7.16;50.22;103008.69;7392190;19;20090;-64
2022/11/13 01:31:51;;;;;;;11.88;6.40;;;;;;;7.08;50.39;103000.19;7394698;19;20027;-64
2022/11/13 01:34:17;;;;;;;11.57;6.30;;;;;;;7.00;50.51;102999.63;7393779;19;20058;-64
2022/11/13 01:36:43;;;;;;;11.57;6.70;;;;;;;6.95;50.65;102996.06;7394000;19;19995;-64
2022/11/13 01:39:10;;;;;;;10.95;5.93;;;;;;;6.96;51.03;102998.53;7393556;19;20021;-64
2022/11/13 01:41:37;;;;;;;10.60;6.10;;;;;;;6.99;50.94;102986.31;7394582;19;20066;-65
2022/11/13 01:44:03;;;;;;;11.43;6.00;;;;;;;6.98;51.05;102996.38;7394578;19;20011;-65
2022/11/13 01:46:39;;;;;;;11.65;6.28;;;;;;;6.88;51.43;102990.84;7394021;19;19997;-64
2022/11/13 01:49:07;;;;;;;11.45;6.35;;;;;;;6.98;51.30;102990.13;7387140;19;20018;-60
2022/11/13 01:51:57;;;;;;;11.48;6.50;;;;;;;7.00;51.30;102987.97;7394288;19;20344;-60
2022/11/13 01:54:28;;;;;;;12.18;6.95;;;;;;;6.98;51.46;102985.50;7393268;19;20009;-60
2022/11/13 01:56:54;;;;;;;13.27;7.45;;;;;;;6.78;51.93;102979.94;7393176;19;20084;-60
2022/11/13 01:59:24;;;;;;;13.15;7.20;;;;;;;6.96;51.67;102965.94;7393579;19;19998;-61
2022/11/13 02:01:50;;;;;;;10.82;6.47;;;;;;;7.13;51.24;102968.47;7394714;19;20033;-60
2022/11/13 02:04:16;;;;;;;11.73;6.60;;;;;;;6.99;51.29;102962.69;7394123;19;20474;-60
2022/11/13 02:06:47;;;;;;;13.65;7.00;;;;;;;6.95;51.59;102961.59;7394324;19;20031;-60
2022/11/13 02:09:16;;;;;;;13.85;7.45;;;;;;;6.92;51.70;102958.59;7391107;19;19995;-60
2022/11/13 02:11:42;;;;;;;11.13;6.90;;;;;;;6.95;51.70;102961.59;7393582;19;20014;-60
2022/11/13 02:14:10;;;;;;;13.18;7.60;;;;;;;7.12;51.17;102952.44;7394134;19;19995;-60
2022/11/13 02:16:38;;;;;;;13.57;7.47;;;;;;;7.11;51.17;102962.50;7391452;19;20521;-61
2022/11/13 02:19:09;;;;;;;11.68;7.10;;;;;;;7.15;51.00;102968.22;7392748;19;20026;-61
2022/11/13 02:21:43;;;;;;;13.82;7.30;;;;;;;7.02;51.37;102954.00;7393323;19;20003;-61
2022/11/13 02:24:11;;;;;;;15.05;7.45;;;;;;;6.94;51.45;102959.13;7392086;19;20003;-61
2022/11/13 02:26:38;;;;;;;13.00;8.00;;;;;;;7.01;51.14;102957.84;7393298;19;20010;-58
2022/11/13 02:29:05;;;;;;;13.05;7.15;;;;;;;6.95;51.52;102949.91;7390908;19;20023;-58
2022/11/13 02:31:30;;;;;;;13.27;7.65;;;;;;;6.99;51.36;102949.09;7391574;19;20009;-58
2022/11/13 02:33:56;;;;;;;15.07;7.40;;;;;;;6.97;51.25;102940.41;7392514;19;20010;-59
2022/11/13 02:36:24;;;;;;;13.82;7.55;;;;;;;6.93;51.44;102942.03;7392920;19;20002;-60
2022/11/13 02:38:51;;;;;;;11.57;7.03;;;;;;;6.83;51.58;102936.53;7390330;19;20007;-60
2022/11/13 02:41:17;;;;;;;14.63;8.30;;;;;;;6.79;51.61;102925.34;7394047;19;20006;-60
2022/11/13 02:43:43;;;;;;;14.38;7.95;;;;;;;6.92;51.51;102934.97;7392322;19;20327;-60
2022/11/13 02:46:08;;;;;;;13.20;6.88;;;;;;;7.08;50.87;102932.31;7392368;19;20022;-60
2022/11/13 02:48:34;;;;;;;13.02;6.65;;;;;;;7.28;50.39;102928.84;7391223;19;20660;-61
2022/11/13 02:51:00;;;;;;;12.40;6.97;;;;;;;7.27;50.25;102922.63;7393376;19;19995;-60
2022/11/13 02:53:26;;;;;;;10.70;6.45;;;;;;;7.29;50.18;102927.78;7392005;19;20366;-61
2022/11/13 02:55:57;;;;;;;12.65;7.20;;;;;;;7.12;50.46;102926.09;7392417;19;20001;-61
2022/11/13 02:58:23;;;;;;;11.55;6.25;;;;;;;7.01;50.59;102930.69;7389146;19;20130;-65
2022/11/13 03:00:49;;;;;;;11.68;6.85;;;;;;;6.93;50.85;102925.75;7392410;19;19998;-63
2022/11/13 03:03:14;;;;;;;12.73;7.00;;;;;;;7.03;50.70;102924.97;7390535;19;19998;-61
2022/11/13 03:05:40;;;;;;;12.27;6.80;;;;;;;7.01;50.63;102925.25;7392933;19;19998;-61
2022/11/13 03:08:06;;;;;;;13.52;7.03;;;;;;;7.14;50.49;102925.81;7391363;19;19999;-59
2022/11/13 03:10:32;;;;;;;13.38;6.78;;;;;;;7.11;50.26;102924.47;7389767;19;20015;-60
2022/11/13 03:12:57;;;;;;;12.18;6.75;;;;;;;6.99;50.43;102918.44;7391874;19;20009;-60
2022/11/13 03:15:23;;;;;;;13.25;6.68;;;;;;;6.92;50.86;102918.66;7389823;19;20082;-60
2022/11/13 03:17:49;;;;;;;11.02;6.18;;;;;;;6.93;51.15;102924.91;7391201;19;20006;-59
2022/11/13 03:20:15;;;;;;;12.73;6.75;;;;;;;6.86;51.20;102917.81;7388113;19;20002;-59
2022/11/13 03:22:41;;;;;;;11.90;6.90;;;;;;;6.91;51.03;102911.63;7392230;19;20006;-59
2022/11/13 03:25:07;;;;;;;11.80;6.85;;;;;;;6.87;51.29;102914.00;7391043;19;20333;-59
2022/11/13 03:27:33;;;;;;;13.38;7.38;;;;;;;6.86;51.31;102911.53;7391664;19;19999;-60
2022/11/13 03:29:58;;;;;;;12.55;7.18;;;;;;;6.83;51.26;102906.66;7389293;19;20538;-60
2022/11/13 03:32:24;;;;;;;12.27;7.07;;;;;;;6.74;51.39;102903.63;7391237;19;20039;-61
2022/11/13 03:34:50;;;;;;;12.32;7.43;;;;;;;6.80;51.32;102908.00;7390560;19;20518;-60
2022/11/13 03:37:15;;;;;;;14.20;6.85;;;;;;;6.77;51.42;102910.44;7391160;19;19999;-60
2022/11/13 03:39:41;;;;;;;12.60;6.85;;;;;;;6.76;51.41;102909.63;7389577;19;20321;-60
2022/11/13 03:42:06;;;;;;;12.25;6.80;;;;;;;6.75;51.59;102905.25;7391034;19;19998;-60
2022/11/13 03:44:32;;;;;;;12.73;7.03;;;;;;;6.67;51.76;102912.00;7390981;19;20428;-60
2022/11/13 03:46:58;;;;;;;12.18;6.90;;;;;;;6.64;51.75;102901.69;7388444;19;20003;-60
2022/11/13 03:49:23;;;;;;;13.05;7.25;;;;;;;6.68;51.58;102916.34;7389409;19;20019;-60
2022/11/13 03:51:49;;;;;;;15.32;7.00;;;;;;;6.62;51.62;102906.53;7392101;19;20380;-61
2022/11/13 03:54:15;;;;;;;12.07;6.70;;;;;;;6.64;51.39;102909.00;7389669;19;20058;-61
2022/11/13 03:56:40;;;;;;;11.43;6.82;;;;;;;6.66;51.38;102894.09;7389566;19;20012;-61
2022/11/13 03:59:06;;;;;;;12.60;6.82;;;;;;;6.65;51.29;102899.78;7389586;19;20016;-61
2022/11/13 04:01:32;;;;;;;12.20;6.22;;;;;;;6.57;51.33;102898.38;7390207;19;20017;-61
2022/11/13 04:03:57;;;;;;;10.73;5.63;;;;;;;6.52;51.49;102898.34;7390100;19;20482;-61
2022/11/13 04:06:23;;;;;;;12.48;7.18;;;;;;;6.50;51.40;102904.03;7389451;19;20011;-61
2022/11/13 04:08:49;;;;;;;11.35;6.78;;;;;;;6.53;51.46;102913.56;7389695;19;20022;-61
2022/11/13 04:11:14;;;;;;;11.23;6.68;;;;;;;6.61;51.09;102912.22;7392158;19;19990;-61
2022/11/13 04:13:40;;;;;;;10.93;6.28;;;;;;;6.61;51.07;102906.81;7397333;19;20514;-61
2022/11/13 04:16:06;;;;;;;10.85;6.47;;;;;;;6.51;51.27;102904.88;7395526;19;20334;-61
2022/11/13 04:18:32;;;;;;;9.30;5.85;;;;;;;6.43;51.23;102898.03;7396490;19;20002;-61
2022/11/13 04:20:59;;;;;;;11.00;6.30;;;;;;;6.39;51.30;102896.09;7397903;19;19991;-61
2022/11/13 04:23:25;;;;;;;11.10;6.20;;;;;;;6.38;51.01;102898.00;7396169;19;19998;-61
2022/11/13 04:25:50;;;;;;;10.00;5.60;;;;;;;6.30;51.13;102898.47;7396626;19;20054;-60
2022/11/13 04:28:16;;;;;;;10.52;5.78;;;;;;;6.24;51.07;102894.09;7394795;19;20020;-60
2022/11/13 04:30:42;;;;;;;11.20;5.90;;;;;;;6.23;51.02;102898.72;7397160;19;20415;-60
2022/11/13 04:33:07;;;;;;;10.85;5.82;;;;;;;6.31;50.78;102892.00;7395815;19;19998;-60
2022/11/13 04:35:33;;;;;;;11.43;5.95;;;;;;;6.32;50.70;102891.69;7394258;19;20069;-60
2022/11/13 04:37:59;;;;;;;9.82;5.63;;;;;;;6.33;50.68;102895.25;7397345;19;20037;-60
2022/11/13 04:40:25;;;;;;;10.55;6.15;;;;;;;6.31;50.85;102890.09;7394062;19;20066;-60
2022/11/13 04:42:51;;;;;;;10.63;6.03;;;;;;;6.25;50.82;102885.69;7397184;19;20019;-60
2022/11/13 04:45:18;;;;;;;9.60;5.85;;;;;;;6.16;51.13;102881.84;7396781;19;20003;-60
2022/11/13 04:47:44;;;;;;;10.90;5.95;;;;;;;6.10;51.26;102882.88;7394669;19;19990;-61
2022/11/13 04:50:10;;;;;;;10.25;6.03;;;;;;;6.21;51.03;102887.31;7392288;19;20102;-60
2022/11/13 04:52:36;;;;;;;12.25;6.53;;;;;;;6.25;50.68;102882.19;7396750;19;19991;-60
2022/11/13 04:55:02;;;;;;;10.90;6.00;;;;;;;6.30;50.81;102877.59;7395073;19;20453;-60
2022/11/13 04:57:28;;;;;;;11.98;6.28;;;;;;;6.46;50.55;102877.69;7393879;19;20022;-61
2022/11/13 04:59:53;;;;;;;11.77;5.95;;;;;;;6.57;50.25;102879.38;7394026;19;19999;-61
2022/11/13 05:02:20;;;;;;;10.38;6.15;;;;;;;6.47;50.33;102873.91;7396954;19;20003;-61
2022/11/13 05:04:45;;;;;;;13.15;5.93;;;;;;;6.42;50.37;102871.16;7396410;19;19995;-61
2022/11/13 05:07:11;;;;;;;13.77;6.50;;;;;;;6.43;50.52;102873.63;7395326;19;20005;-61
2022/11/13 05:09:37;;;;;;;12.68;6.45;;;;;;;6.47;50.63;102865.75;7394176;19;20002;-60
2022/11/13 05:12:06;;;;;;;12.75;6.63;;;;;;;6.39;50.81;102858.91;7396410;19;20003;-60
2022/11/13 05:14:36;;;;;;;10.88;5.97;;;;;;;6.36;50.79;102854.03;7394726;19;20070;-60
2022/11/13 05:17:02;;;;;;;12.20;6.72;;;;;;;6.37;50.84;102855.66;7395918;19;20010;-60
2022/11/13 05:19:28;;;;;;;10.45;6.15;;;;;;;6.06;51.45;102851.94;7394172;19;20007;-60
2022/11/13 05:21:54;;;;;;;10.68;6.35;;;;;;;5.99;51.80;102845.91;7394109;19;20082;-61
2022/11/13 05:24:19;;;;;;;12.18;6.82;;;;;;;5.92;51.74;102844.22;7394081;19;20003;-61
2022/11/13 05:26:45;;;;;;;12.10;7.00;;;;;;;5.90;51.99;102840.97;7394667;19;20002;-60
2022/11/13 05:29:10;;;;;;;12.25;6.72;;;;;;;6.22;51.43;102834.69;7393947;19;20007;-60
2022/11/13 05:31:36;;;;;;;11.85;6.78;;;;;;;6.35;50.93;102836.13;7393183;19;20006;-59
2022/11/13 05:34:03;;;;;;;10.90;6.20;;;;;;;6.36;50.87;102836.94;7392408;19;20013;-59
2022/11/13 05:36:29;;;;;;;14.35;7.40;;;;;;;6.12;51.60;102837.34;7393270;19;20023;-59
2022/11/13 05:38:55;;;;;;;13.57;7.38;;;;;;;6.21;51.53;102829.53;7395002;19;20007;-59
2022/11/13 05:41:22;;;;;;;14.23;7.88;;;;;;;6.25;51.36;102834.16;7395392;19;20003;-59
2022/11/13 05:43:48;;;;;;;16.35;7.68;;;;;;;6.43;51.02;102832.13;7395766;19;20003;-59
2022/11/13 05:46:25;;;;;;;15.50;7.80;;;;;;;6.32;51.27;102832.03;7393959;19;20073;-59
2022/11/13 05:48:53;;;;;;;14.73;8.13;;;;;;;6.28;51.51;102830.94;7391988;19;20003;-59
2022/11/13 05:51:21;;;;;;;14.05;7.63;;;;;;;6.38;51.38;102837.50;7392337;19;20099;-59
2022/11/13 05:53:47;;;;;;;14.88;7.82;;;;;;;6.35;51.68;102833.41;7393835;19;20017;-59
2022/11/13 05:56:25;;;;;;;14.43;8.35;;;;;;;6.29;51.65;102832.59;7393729;19;20483;-59
2022/11/13 05:58:52;;;;;;;14.50;7.80;;;;;;;6.36;51.60;102832.34;7392490;19;20010;-59
2022/11/13 06:01:22;;;;;;;14.52;7.70;;;;;;;6.26;51.69;102827.69;7394317;19;20009;-59
2022/11/13 06:03:48;;;;;;;13.93;7.93;;;;;;;6.28;51.79;102822.81;7393272;19;19999;-59
2022/11/13 06:06:19;;;;;;;13.90;7.45;;;;;;;6.23;51.99;102828.19;7391591;19;20006;-59
2022/11/13 06:08:46;;;;;;;13.23;7.78;;;;;;;6.37;51.56;102827.72;7391769;19;20003;-59
2022/11/13 06:11:15;;;;;;;12.70;7.38;;;;;;;6.45;51.29;102827.22;7393552;19;20010;-61
2022/11/13 06:13:40;;;;;;;15.55;7.88;;;;;;;6.37;51.45;102820.41;7392078;19;20029;-61
2022/11/13 06:16:14;;;;;;;13.25;7.32;;;;;;;6.38;51.24;102813.91;7393816;19;20002;-60
2022/11/13 06:18:42;;;;;;;14.02;7.32;;;;;;;6.26;51.28;102816.00;7393447;19;20445;-60
2022/11/13 06:21:17;;;;;;;13.77;7.75;;;;;;;6.19;51.46;102805.38;7394351;19;20385;-61
2022/11/13 06:23:43;;;;;;;14.40;8.00;;;;;;;6.25;51.45;102809.75;7395216;19;20002;-62
2022/11/13 06:26:18;;;;;;;14.18;7.63;;;;;;;6.23;51.32;102809.22;7392968;19;19998;-61
2022/11/13 06:28:44;;;;;;;14.73;8.52;;;;;;;6.15;51.39;102803.47;7393505;19;20482;-61
2022/11/13 06:31:18;;;;;;;17.20;7.93;;;;;;;6.10;51.57;102801.53;7394459;19;20002;-62
2022/11/13 06:33:45;;;;;;;14.50;8.95;;;;;;;5.95;51.81;102794.13;7392794;19;19999;-61
2022/11/13 06:36:16;;;;;;;15.35;8.57;;;;;;;5.88;52.05;102794.34;7392951;19;19998;-60
2022/11/13 06:38:42;;;;;;;14.30;8.35;;;;;;;5.88;52.20;102802.47;7393498;19;20446;-60
2022/11/13 06:41:10;;;;;;;15.43;8.98;;;;;;;5.70;52.98;102802.88;7392570;19;20074;-60
2022/11/13 06:43:36;;;;;;;16.15;8.95;;;;;;;6.05;52.12;102805.03;7393962;19;20003;-60
2022/11/13 06:46:13;;;;;;;17.65;10.10;;;;;;;5.89;52.28;102806.00;7394063;19;20043;-59
2022/11/13 06:48:39;;;;;;;18.23;8.45;;;;;;;6.12;51.92;102804.81;7392749;19;19994;-59
2022/11/13 06:51:06;;;;;;;19.65;8.93;;;;;;;6.20;51.56;102803.50;7392462;19;20009;-60
2022/11/13 06:53:33;;;;;;;15.00;8.80;;;;;;;6.30;51.03;102804.34;7393897;19;20155;-59
2022/11/13 06:55:59;;;;;;;14.13;8.05;;;;;;;6.28;50.77;102803.81;7394109;19;20001;-60
2022/11/13 06:58:26;;;;;;;15.35;8.73;;;;;;;6.14;51.32;102802.63;7392645;19;20010;-59
2022/11/13 07:00:52;;;;;;;16.30;7.93;;;;;;;6.16;51.44;102805.09;7393247;19;20435;-60
2022/11/13 07:03:23;;;;;;;14.95;8.80;;;;;;;6.20;51.56;102801.59;7392971;19;19998;-59
2022/11/13 07:05:49;;;;;;;17.85;9.55;;;;;;;6.45;51.07;102797.41;7393528;19;20372;-60
2022/11/13 07:08:15;;;;;;;16.15;9.63;;;;;;;6.60;50.38;102794.75;7391077;19;20050;-61
2022/11/13 07:10:41;;;;;;;17.25;9.15;;;;;;;6.63;50.34;102799.63;7393001;19;19998;-60
2022/11/13 07:13:08;;;;;;;17.63;10.00;;;;;;;6.60;50.36;102783.88;7391761;19;19999;-60
2022/11/13 07:15:35;;;;;;;17.25;9.57;;;;;;;6.74;50.16;102784.19;7390348;19;19999;-60
2022/11/13 07:18:01;;;;;;;16.92;9.10;;;;;;;6.73;50.26;102792.59;7391666;19;20013;-62
2022/11/13 07:20:28;;;;;;;16.15;9.27;;;;;;;6.81;50.26;102784.78;7389330;19;20062;-62
2022/11/13 07:22:55;;;;;;;14.52;9.10;;;;;;;6.67;50.67;102787.16;7391276;19;20010;-62
2022/11/13 07:25:21;;;;;;;18.45;9.63;;;;;;;6.53;51.02;102785.19;7387065;19;20479;-62
2022/11/13 07:27:46;;;;;;;20.42;10.15;;;;;;;6.59;50.92;102782.25;7388162;19;20002;-62
2022/11/13 07:30:12;;;;;;;16.67;9.15;;;;;;;6.63;50.86;102783.34;7390610;19;20015;-62
2022/11/13 07:32:38;;;;;;;14.52;8.88;;;;;;;6.68;50.86;102779.84;7390979;19;19991;-62
2022/11/13 07:35:04;;;;;;;16.92;9.15;;;;;;;6.68;50.96;102780.66;7389720;19;19995;-62
2022/11/13 07:37:30;;;;;;;19.35;9.70;;;;;;;6.74;50.67;102775.25;7388803;19;20007;-62
2022/11/13 07:39:55;;;;;;;19.92;9.88;;;;;;;6.77;50.35;102777.44;7388137;19;20389;-62
2022/11/13 07:42:21;;;;;;;16.92;9.25;;;;;;;6.78;50.06;102777.16;7390883;19;20339;-63
2022/11/13 07:44:47;;;;;;;17.15;8.48;;;;;;;6.72;50.42;102774.72;7388638;19;19995;-62
2022/11/13 07:47:12;;;;;;;14.63;8.20;;;;;;;6.49;51.10;102776.78;7395979;19;19999;-62
2022/11/13 07:49:38;;;;;;;14.85;8.02;;;;;;;6.49;50.85;102777.63;7395082;19;20019;-62
2022/11/13 07:52:04;;;;;;;14.45;8.50;;;;;;;6.51;50.91;102782.78;7398611;19;19999;-62
2022/11/13 07:54:29;;;;;;;16.23;8.02;;;;;;;6.60;50.95;102777.66;7397184;19;19999;-62
2022/11/13 07:56:55;;;;;;;14.30;8.50;;;;;;;6.64;51.12;102773.31;7396058;19;20001;-62
2022/11/13 07:59:21;;;;;;;16.98;9.57;;;;;;;6.74;50.70;102769.81;7396164;19;20003;-62
2022/11/13 08:01:47;;;;;;;17.27;10.25;;;;;;;6.77;50.99;102766.56;7396516;19;19999;-62
2022/11/13 08:04:12;;;;;;;18.48;10.82;;;;;;;6.84;51.12;102772.56;7397385;19;20494;-62
2022/11/13 08:06:38;;;;;;;18.58;10.27;;;;;;;6.87;50.99;102772.03;7394982;19;20003;-62
2022/11/13 08:09:04;;;;;;;17.65;10.23;;;;;;;6.89;51.09;102774.47;7395359;19;20002;-62
2022/11/13 08:11:30;;;;;;;16.80;10.20;;;;;;;6.98;51.17;102776.44;7397023;19;19999;-60
2022/11/13 08:13:55;;;;;;;19.42;11.65;;;;;;;7.08;51.23;102782.97;7396543;19;20032;-60
2022/11/13 08:16:22;;;;;;;21.38;12.57;;;;;;;7.05;51.47;102782.41;7396957;19;20066;-63
2022/11/13 08:18:48;;;;;;;18.77;11.57;;;;;;;7.13;51.37;102780.25;7395568;19;20003;-61
2022/11/13 08:21:14;;;;;;;23.15;11.90;;;;;;;7.30;51.29;102775.41;7396723;19;20369;-61
2022/11/13 08:23:41;;;;;;;19.42;11.70;;;;;;;7.27;51.63;102775.94;7397371;19;19995;-61
2022/11/13 08:26:07;;;;;;;20.95;12.15;;;;;;;7.40;51.51;102767.25;7394845;19;20014;-61
2022/11/13 08:28:34;;;;;;;19.45;10.80;;;;;;;7.57;51.31;102779.75;7395706;19;20506;-61
2022/11/13 08:31:00;;;;;;;18.42;10.85;;;;;;;7.60;51.41;102766.44;7396994;19;20010;-61
2022/11/13 08:33:27;;;;;;;18.38;10.45;;;;;;;7.66;51.49;102778.09;7396688;19;20007;-61
2022/11/13 08:35:57;;;;;;;17.83;10.45;;;;;;;7.78;51.48;102770.50;7394537;19;20006;-61
2022/11/13 08:38:24;;;;;;;20.48;11.30;;;;;;;7.85;51.36;102767.50;7395272;19;20002;-61
2022/11/13 08:40:50;;;;;;;19.05;11.88;;;;;;;7.82;51.68;102769.94;7397356;19;20003;-61
2022/11/13 08:43:16;;;;;;;20.05;12.18;;;;;;;7.95;51.67;102780.25;7396491;19;20006;-61
2022/11/13 08:45:45;;;;;;;22.05;13.23;;;;;;;8.04;51.67;102781.31;7397095;19;20006;-61
2022/11/13 08:48:11;;;;;;;20.80;12.05;;;;;;;8.19;51.42;102774.22;7394958;19;19999;-62
2022/11/13 08:50:37;;;;;;;20.92;12.10;;;;;;;8.28;51.48;102772.53;7394434;19;20044;-61
2022/11/13 08:53:02;;;;;;;21.70;12.27;;;;;;;8.35;51.38;102764.94;7396000;19;20002;-61
2022/11/13 08:55:28;;;;;;;19.17;11.98;;;;;;;8.34;51.42;102761.38;7393771;19;20006;-61
2022/11/13 08:57:58;;;;;;;22.80;13.02;;;;;;;8.48;51.35;102764.34;7392857;19;20005;-59
2022/11/13 09:00:24;;;;;;;26.80;15.52;;;;;;;8.59;51.52;102767.81;7393579;19;19998;-61
2022/11/13 09:02:54;;;;;;;25.20;15.18;;;;;;;8.65;51.34;102760.47;7396059;19;19991;-61
2022/11/13 09:05:21;;;;;;;23.20;13.95;;;;;;;8.72;51.04;102755.53;7395240;19;20750;-61
2022/11/13 09:07:47;;;;;;;20.48;13.48;;;;;;;8.74;51.28;102756.03;7395044;19;20001;-61
2022/11/13 09:10:12;;;;;;;23.27;14.38;;;;;;;8.82;51.21;102765.53;7393248;19;20327;-61
2022/11/13 09:12:38;;;;;;;25.27;14.20;;;;;;;8.88;51.17;102758.94;7394645;19;19998;-62
2022/11/13 09:15:04;;;;;;;25.40;14.73;;;;;;;8.96;51.01;102761.06;7391831;19;20477;-62
2022/11/13 09:17:30;;;;;;;23.85;15.07;;;;;;;8.99;50.85;102757.78;7392928;19;20016;-62
2022/11/13 09:19:56;;;;;;;23.33;14.15;;;;;;;9.05;50.32;102761.31;7393362;19;20345;-61
2022/11/13 09:22:22;;;;;;;22.52;14.48;;;;;;;9.06;50.56;102754.75;7394378;19;20466;-62
2022/11/13 09:24:48;;;;;;;23.35;14.57;;;;;;;9.07;50.37;102753.66;7395603;19;19998;-65
2022/11/13 09:27:13;;;;;;;23.17;14.23;;;;;;;9.09;50.31;102751.47;7395220;19;20009;-61
2022/11/13 09:29:39;;;;;;;22.17;14.38;;;;;;;9.09;50.25;102744.09;7394264;19;19995;-62
2022/11/13 09:32:05;;;;;;;21.25;13.48;;;;;;;9.16;50.04;102743.78;7393483;19;20611;-61
2022/11/13 09:34:32;;;;;;;21.95;14.77;;;;;;;9.17;50.25;102747.34;7394237;19;19995;-62
2022/11/13 09:36:58;;;;;;;22.50;14.45;;;;;;;9.19;50.52;102762.28;7393683;19;19998;-61
2022/11/13 09:39:24;;;;;;;20.30;13.57;;;;;;;9.13;50.72;102757.97;7393565;19;20094;-61
2022/11/13 09:42:09;;;;;;;20.20;12.73;;;;;;;9.01;51.72;102757.50;7394495;19;20502;-61
2022/11/13 09:44:47;;;;;;;21.08;13.25;;;;;;;9.03;51.46;102756.16;7392775;19;19995;-62
2022/11/13 09:47:23;;;;;;;22.73;13.52;;;;;;;8.99;51.36;102759.72;7392945;19;19994;-62
2022/11/13 09:50:13;;;;;;;22.58;13.55;;;;;;;8.96;51.63;102766.53;7393277;19;20042;-62
2022/11/13 09:52:42;;;;;;;21.70;13.50;;;;;;;8.93;51.59;102761.63;7393232;19;20002;-62
2022/11/13 09:55:12;;;;;;;22.17;14.25;;;;;;;8.88;51.60;102764.41;7393299;19;20003;-62
2022/11/13 09:57:59;;;;;;;20.90;13.40;;;;;;;8.87;51.90;102763.59;7392670;19;20002;-62
2022/11/13 10:00:27;;;;;;;21.45;13.70;;;;;;;9.00;51.74;102758.59;7392740;19;20003;-62
2022/11/13 10:03:08;;;;;;;22.52;14.45;;;;;;;9.09;51.30;102754.19;7391657;19;20013;-63
2022/11/13 10:05:44;;;;;;;22.98;13.77;;;;;;;9.14;50.97;102754.16;7392498;19;20007;-63
2022/11/13 10:08:18;;;;;;;24.45;13.95;;;;;;;9.03;51.44;102749.88;7391981;19;20054;-62
2022/11/13 10:10:48;;;;;;;20.38;13.95;;;;;;;9.11;51.25;102749.28;7391500;19;20017;-61
2022/11/13 10:13:24;;;;;;;24.80;14.48;;;;;;;9.24;50.96;102735.00;7393032;19;20006;-62
2022/11/13 10:15:53;;;;;;;25.20;14.57;;;;;;;9.31;51.06;102734.66;7391810;19;20013;-62
2022/11/13 10:18:27;;;;;;;22.70;14.60;;;;;;;9.44;50.79;102739.47;7392232;19;20002;-62
2022/11/13 10:20:56;;;;;;;25.75;14.43;;;;;;;9.52;50.80;102738.03;7394166;19;20030;-62
2022/11/13 10:23:34;;;;;;;26.35;14.80;;;;;;;9.60;50.75;102737.47;7393541;19;20102;-62
2022/11/13 10:26:12;;;;;;;24.75;14.77;;;;;;;9.59;50.89;102735.81;7393647;19;20017;-62
2022/11/13 10:28:44;;;;;;;23.80;13.80;;;;;;;9.58;50.81;102736.91;7390627;19;20034;-62
2022/11/13 10:31:11;;;;;;;24.13;14.95;;;;;;;9.60;50.98;102726.56;7390194;19;20015;-62
2022/11/13 10:33:37;;;;;;;24.73;14.45;;;;;;;9.73;50.44;102735.16;7392998;19;19998;-62
2022/11/13 10:36:25;;;;;;;21.98;13.98;;;;;;;9.77;50.64;102728.03;7392800;19;19999;-62
2022/11/13 10:39:03;;;;;;;23.08;14.20;;;;;;;9.79;50.41;102728.53;7392743;19;20005;-62
2022/11/13 10:41:29;;;;;;;22.73;13.75;;;;;;;9.81;50.59;102726.34;7390822;19;20496;-62
2022/11/13 10:44:20;;;;;;;21.88;13.55;;;;;;;9.81;50.74;102715.44;7391167;19;20033;-61
2022/11/13 10:46:46;;;;;;;19.90;13.07;;;;;;;9.90;50.36;102721.06;7391506;19;20091;-62
2022/11/13 10:49:17;;;;;;;23.25;13.75;;;;;;;9.93;50.26;102710.38;7391829;19;20007;-62
2022/11/13 10:51:43;;;;;;;25.13;14.07;;;;;;;9.94;50.55;102703.81;7389032;19;20011;-61
2022/11/13 10:54:22;;;;;;;22.20;13.50;;;;;;;9.98;50.62;102709.50;7392228;19;20007;-61
2022/11/13 10:57:03;;;;;;;22.85;13.65;;;;;;;10.07;50.15;102701.47;7391025;19;19999;-62
2022/11/13 10:59:43;;;;;;;20.27;13.50;;;;;;;10.09;49.99;102700.09;7391383;19;20006;-62
2022/11/13 11:02:25;;;;;;;21.40;14.10;;;;;;;10.08;50.38;102689.47;7389997;19;20006;-63
2022/11/13 11:05:12;;;;;;;21.52;13.88;;;;;;;10.16;50.12;102692.38;7391789;19;20347;-62
2022/11/13 11:07:40;;;;;;;22.48;13.43;;;;;;;10.26;49.94;102696.88;7390993;19;20010;-62
2022/11/13 11:10:20;;;;;;;21.23;13.20;;;;;;;10.31;49.48;102691.34;7390064;19;20480;-62
2022/11/13 11:12:54;;;;;;;18.85;12.48;;;;;;;10.36;49.06;102677.63;7389596;19;19998;-62
2022/11/13 11:15:20;;;;;;;;;;;;;;;10.42;49.08;102674.84;7389024;19;20026;-63
2022/11/13 11:17:51;;;;;;;18.63;12.45;;;;;;;10.43;49.16;102671.00;7389088;19;20243;-61
2022/11/13 11:20:34;;;;;;;19.42;12.45;;;;;;;10.47;49.17;102661.94;7389383;19;20013;-61
2022/11/13 11:23:24;;;;;;;19.85;11.93;;;;;;;10.51;48.74;102668.44;7389585;19;20016;-62
2022/11/13 11:26:03;;;;;;;20.73;12.15;;;;;;;10.58;48.81;102668.06;7389147;19;20472;-61